Time;durP1;ratioP1;P1;durP2;ratioP2;P2;SDS_P1;SDS_P2;PMS_P1;PMS_P2;Temp;Humidity;BMP_temperature;BMP_pressure;BME280_temperature;BME280_humidity;BME280_pressure;Samples;Min_cycle;Max_cycle;Signal;HPM_P1;HPM_P2
2023/03/17 09:21:33;;;;;;;0.00;0.00;;;9.70;57.00;;;;;;5094221;27;20398;-72
2023/03/17 09:23:59;;;;;;;0.00;0.00;;;9.80;56.70;;;;;;5087312;28;20029;-72
2023/03/17 09:26:25;;;;;;;0.00;0.00;;;9.90;56.40;;;;;;5080247;28;20207;-72
2023/03/17 09:28:51;;;;;;;0.00;0.00;;;9.70;56.20;;;;;;5089445;28;20288;-71
2023/03/17 09:31:17;;;;;;;0.00;0.00;;;9.80;56.50;;;;;;5079946;28;20536;-72
2023/03/17 09:33:43;;;;;;;0.00;0.00;;;9.90;56.50;;;;;;5088843;28;20020;-72
2023/03/17 09:36:10;;;;;;;0.00;0.00;;;10.10;56.10;;;;;;5077959;28;20028;-72
2023/03/17 09:38:36;;;;;;;0.00;0.00;;;10.10;55.80;;;;;;5088269;28;20043;-72
2023/03/17 09:41:40;;;;;;;0.00;0.00;;;10.00;55.70;;;;;;5082514;28;20051;-72
2023/03/17 09:44:29;;;;;;;0.00;0.00;;;10.00;55.80;;;;;;5012342;28;20073;-72
2023/03/17 09:46:57;;;;;;;0.00;0.00;;;10.00;55.60;;;;;;5011184;28;20313;-71
2023/03/17 09:49:41;;;;;;;0.00;0.00;;;10.00;55.50;;;;;;5015150;28;20229;-71
2023/03/17 09:52:13;;;;;;;0.00;0.00;;;10.10;55.40;;;;;;5012392;28;20411;-72
2023/03/17 09:54:41;;;;;;;0.00;0.00;;;10.10;55.20;;;;;;5018314;28;20091;-72
2023/03/17 09:57:18;;;;;;;0.00;0.00;;;10.20;55.30;;;;;;5016745;28;20368;-73
2023/03/17 09:59:47;;;;;;;0.00;0.00;;;10.30;55.40;;;;;;5012863;28;20662;-70
2023/03/17 10:02:26;;;;;;;0.00;0.00;;;10.40;55.00;;;;;;5009776;28;20052;-71
2023/03/17 10:04:52;;;;;;;0.00;0.00;;;10.40;54.60;;;;;;5013554;28;20030;-72
2023/03/17 10:07:40;;;;;;;0.00;0.00;;;10.40;54.20;;;;;;5011697;28;20097;-72
2023/03/17 10:10:24;;;;;;;0.00;0.00;;;10.30;54.10;;;;;;5013193;28;20034;-72
2023/03/17 10:13:09;;;;;;;0.00;0.00;;;10.30;53.70;;;;;;5010347;28;20046;-71
2023/03/17 10:15:43;;;;;;;0.00;0.00;;;10.40;53.50;;;;;;5011950;28;20022;-71
2023/03/17 10:18:12;;;;;;;0.00;0.00;;;10.50;53.60;;;;;;5054043;28;20028;-72
2023/03/17 10:21:10;;;;;;;0.00;0.00;;;10.50;53.40;;;;;;5076524;28;20063;-71
2023/03/17 10:23:36;;;;;;;0.00;0.00;;;10.60;53.40;;;;;;5062337;28;20065;-71
2023/03/17 10:26:12;;;;;;;0.00;0.00;;;10.70;53.10;;;;;;5086682;28;20017;-72
2023/03/17 10:28:38;;;;;;;0.00;0.00;;;10.70;53.20;;;;;;5074992;28;20021;-72
2023/03/17 10:31:25;;;;;;;0.00;0.00;;;10.70;53.30;;;;;;5083760;28;20025;-72
2023/03/17 10:33:52;;;;;;;0.00;0.00;;;10.80;53.10;;;;;;5074797;28;20114;-72
2023/03/17 10:36:36;;;;;;;0.00;0.00;;;10.80;52.90;;;;;;5065066;28;20195;-72
2023/03/17 10:39:04;;;;;;;0.00;0.00;;;11.00;52.40;;;;;;5059219;28;20239;-72
2023/03/17 10:41:34;;;;;;;0.00;0.00;;;11.00;52.40;;;;;;5061704;28;20088;-72
2023/03/17 10:44:00;;;;;;;0.00;0.00;;;11.20;52.60;;;;;;5072729;28;20040;-72
2023/03/17 10:46:28;;;;;;;0.00;0.00;;;11.30;52.40;;;;;;5058844;28;20013;-72
2023/03/17 10:49:06;;;;;;;0.00;0.00;;;11.50;52.20;;;;;;5073554;28;20032;-72
2023/03/17 10:51:35;;;;;;;0.00;0.00;;;11.70;51.00;;;;;;5063633;28;20096;-71
2023/03/17 10:54:08;;;;;;;0.00;0.00;;;11.70;50.90;;;;;;5060346;28;20056;-73
2023/03/17 10:56:41;;;;;;;0.00;0.00;;;11.70;50.10;;;;;;5062432;28;20086;-73
2023/03/17 10:59:16;;;;;;;0.00;0.00;;;11.70;49.80;;;;;;5075593;28;20211;-72
2023/03/17 11:02:24;;;;;;;0.00;0.00;;;11.70;49.30;;;;;;5072708;28;20025;-72
2023/03/17 11:04:57;;;;;;;0.00;0.00;;;12.10;49.40;;;;;;5051139;28;20108;-72
2023/03/17 11:07:37;;;;;;;0.00;0.00;;;13.00;48.00;;;;;;5068311;28;20082;-73
2023/03/17 11:10:13;;;;;;;0.00;0.00;;;13.80;46.20;;;;;;5062246;28;20042;-72
2023/03/17 11:12:41;;;;;;;0.00;0.00;;;14.10;45.00;;;;;;5074253;28;20028;-75
2023/03/17 11:15:18;;;;;;;0.00;0.00;;;14.30;45.40;;;;;;5075538;28;20050;-74
2023/03/17 11:17:53;;;;;;;0.00;0.00;;;14.50;44.50;;;;;;5062429;28;20028;-71
2023/03/17 11:20:36;;;;;;;0.00;0.00;;;14.70;44.00;;;;;;5059035;28;20056;-72
2023/03/17 11:23:25;;;;;;;0.00;0.00;;;15.10;43.70;;;;;;5057264;28;20039;-72
2023/03/17 11:26:05;;;;;;;0.00;0.00;;;15.30;42.50;;;;;;5064978;28;20063;-71
2023/03/17 11:28:37;;;;;;;0.00;0.00;;;15.30;42.30;;;;;;5061305;28;20025;-72
2023/03/17 11:31:14;;;;;;;0.00;0.00;;;15.30;42.10;;;;;;5057901;28;20029;-71
2023/03/17 11:34:04;;;;;;;0.00;0.00;;;14.80;42.40;;;;;;5059916;28;20024;-72
2023/03/17 11:36:39;;;;;;;0.00;0.00;;;14.50;42.70;;;;;;5063303;28;20142;-72
2023/03/17 11:39:11;;;;;;;0.00;0.00;;;14.60;42.60;;;;;;5072158;28;20096;-72
2023/03/17 11:42:15;;;;;;;0.00;0.00;;;14.70;42.40;;;;;;5072565;28;20086;-72
2023/03/17 11:44:45;;;;;;;0.00;0.00;;;14.70;42.30;;;;;;5065891;28;20028;-73
2023/03/17 11:47:16;;;;;;;0.00;0.00;;;14.60;42.80;;;;;;5062267;28;20039;-73
2023/03/17 11:49:47;;;;;;;0.00;0.00;;;14.60;43.10;;;;;;5065257;28;20025;-73
2023/03/17 11:52:52;;;;;;;0.00;0.00;;;14.60;43.50;;;;;;5072291;28;20279;-73
2023/03/17 11:55:33;;;;;;;0.00;0.00;;;14.80;42.60;;;;;;5072029;28;20203;-73
2023/03/17 11:58:04;;;;;;;0.00;0.00;;;14.70;43.00;;;;;;5061342;28;20112;-73
2023/03/17 12:00:44;;;;;;;0.00;0.00;;;14.50;42.60;;;;;;5072035;28;20091;-72
2023/03/17 12:03:45;;;;;;;0.00;0.00;;;14.50;43.00;;;;;;5064432;28;20036;-72
2023/03/17 12:06:32;;;;;;;0.00;0.00;;;14.50;43.30;;;;;;5062882;28;20089;-72
2023/03/17 12:09:08;;;;;;;0.00;0.00;;;14.50;42.40;;;;;;5059616;28;20207;-72
2023/03/17 12:11:39;;;;;;;0.00;0.00;;;14.40;42.70;;;;;;5074114;28;20095;-72
2023/03/17 12:14:12;;;;;;;0.00;0.00;;;14.20;42.60;;;;;;5063800;28;20025;-73
2023/03/17 12:16:49;;;;;;;0.00;0.00;;;14.00;42.80;;;;;;5059200;28;20044;-72
2023/03/17 12:19:23;;;;;;;0.00;0.00;;;13.80;42.80;;;;;;5064151;28;20016;-72
2023/03/17 12:22:06;;;;;;;0.00;0.00;;;13.60;43.00;;;;;;5061675;28;20059;-72
2023/03/17 12:24:40;;;;;;;0.00;0.00;;;13.40;43.60;;;;;;5067453;28;20016;-73
2023/03/17 12:27:30;;;;;;;0.00;0.00;;;13.50;43.70;;;;;;5070770;28;20112;-72
2023/03/17 12:30:37;;;;;;;0.00;0.00;;;13.60;43.50;;;;;;5059643;28;20033;-72
2023/03/17 12:33:11;;;;;;;0.00;0.00;;;13.60;43.60;;;;;;5058189;28;20087;-72
2023/03/17 12:35:37;;;;;;;0.00;0.00;;;13.60;43.50;;;;;;5066577;28;20028;-72
2023/03/17 12:38:28;;;;;;;0.00;0.00;;;13.60;43.40;;;;;;5062792;28;20252;-73
2023/03/17 12:41:03;;;;;;;0.00;0.00;;;13.70;43.50;;;;;;5064815;28;20052;-71
2023/03/17 12:43:35;;;;;;;0.00;0.00;;;13.60;43.10;;;;;;5057272;28;20033;-73
2023/03/17 12:46:13;;;;;;;0.00;0.00;;;13.60;43.00;;;;;;5072313;28;20019;-72
2023/03/17 12:49:00;;;;;;;0.00;0.00;;;13.50;43.00;;;;;;5057881;28;20059;-73
2023/03/17 12:51:47;;;;;;;0.00;0.00;;;13.50;43.10;;;;;;5055414;28;20063;-73
2023/03/17 12:54:29;;;;;;;0.00;0.00;;;13.50;43.10;;;;;;5060004;28;20036;-73
2023/03/17 12:57:04;;;;;;;0.00;0.00;;;13.50;42.70;;;;;;5056519;28;20188;-72
2023/03/17 12:59:32;;;;;;;0.00;0.00;;;13.50;42.70;;;;;;5064683;28;20028;-72
2023/03/17 13:02:27;;;;;;;0.00;0.00;;;13.40;42.90;;;;;;5065612;28;20052;-73
2023/03/17 13:04:59;;;;;;;0.00;0.00;;;13.40;42.70;;;;;;5052532;28;20032;-73
2023/03/17 13:07:47;;;;;;;0.00;0.00;;;13.30;42.80;;;;;;5062521;28;20024;-73
2023/03/17 13:10:38;;;;;;;0.00;0.00;;;13.40;42.70;;;;;;5078728;28;20031;-73
2023/03/17 13:13:10;;;;;;;0.00;0.00;;;13.30;42.50;;;;;;5070284;28;20475;-72
2023/03/17 13:15:37;;;;;;;0.00;0.00;;;13.30;42.60;;;;;;5064206;28;20032;-72
2023/03/17 13:18:26;;;;;;;0.00;0.00;;;13.30;42.40;;;;;;5061361;28;20081;-73
2023/03/17 13:21:13;;;;;;;0.00;0.00;;;13.30;42.20;;;;;;5070451;28;20075;-73
2023/03/17 13:23:46;;;;;;;0.00;0.00;;;13.30;42.20;;;;;;5071630;28;20028;-73
2023/03/17 13:26:39;;;;;;;0.00;0.00;;;13.30;42.40;;;;;;5065641;28;20012;-71
2023/03/17 13:29:36;;;;;;;0.00;0.00;;;13.30;42.40;;;;;;5040340;28;20116;-72
2023/03/17 13:32:20;;;;;;;0.00;0.00;;;13.30;42.20;;;;;;5069929;28;20089;-73
2023/03/17 13:35:12;;;;;;;0.00;0.00;;;13.30;42.20;;;;;;5060562;28;20052;-71
2023/03/17 13:38:03;;;;;;;0.00;0.00;;;13.40;42.20;;;;;;5059973;28;20217;-72
2023/03/17 13:40:54;;;;;;;0.00;0.00;;;13.40;42.10;;;;;;5071774;28;20040;-72
2023/03/17 13:43:47;;;;;;;0.00;0.00;;;13.30;42.30;;;;;;5064458;28;20028;-73
2023/03/17 13:46:25;;;;;;;0.00;0.00;;;13.40;42.20;;;;;;5063020;28;20104;-73
2023/03/17 13:48:52;;;;;;;;;;;13.40;41.90;;;;;;5070369;28;20081;-73
2023/03/17 13:51:30;;;;;;;0.00;0.00;;;13.40;41.60;;;;;;5060707;28;19901;-72
2023/03/17 13:54:21;;;;;;;0.00;0.00;;;13.40;41.90;;;;;;5054643;28;20056;-72
2023/03/17 13:56:48;;;;;;;0.00;0.00;;;13.40;41.80;;;;;;5047054;28;20051;-72
2023/03/17 13:59:17;;;;;;;0.00;0.00;;;13.50;41.80;;;;;;5064779;28;20087;-71
2023/03/17 14:01:59;;;;;;;0.00;0.00;;;13.50;41.60;;;;;;5070218;28;20055;-72
2023/03/17 14:04:38;;;;;;;0.00;0.00;;;13.50;41.60;;;;;;5057411;28;20952;-72
2023/03/17 14:07:12;;;;;;;0.00;0.00;;;13.60;41.80;;;;;;5066256;28;20028;-73
2023/03/17 14:09:41;;;;;;;0.00;0.00;;;13.50;41.70;;;;;;5063929;28;20036;-75
2023/03/17 14:12:39;;;;;;;0.00;0.00;;;13.40;41.60;;;;;;5065570;28;20021;-72
2023/03/17 14:15:20;;;;;;;0.00;0.00;;;13.40;42.10;;;;;;5059271;28;20114;-72
2023/03/17 14:17:52;;;;;;;0.00;0.00;;;13.40;42.10;;;;;;5079730;28;20032;-72
2023/03/17 14:20:22;;;;;;;0.00;0.00;;;13.40;41.80;;;;;;5075272;28;20038;-75
2023/03/17 14:22:57;;;;;;;0.00;0.00;;;13.50;41.90;;;;;;5073094;28;20033;-73
2023/03/17 14:25:26;;;;;;;0.00;0.00;;;13.50;41.40;;;;;;5066756;28;20292;-72
2023/03/17 14:27:55;;;;;;;0.00;0.00;;;13.50;41.70;;;;;;5074768;28;20135;-73
2023/03/17 14:30:27;;;;;;;0.00;0.00;;;13.50;42.00;;;;;;5062500;28;20025;-73
2023/03/17 14:33:10;;;;;;;0.00;0.00;;;13.60;41.90;;;;;;5067038;28;20035;-74
2023/03/17 14:35:40;;;;;;;0.00;0.00;;;13.60;41.60;;;;;;5063205;28;20222;-75
2023/03/17 14:38:21;;;;;;;0.00;0.00;;;13.70;41.20;;;;;;5064320;28;20028;-74
2023/03/17 14:40:48;;;;;;;0.00;0.00;;;13.70;41.20;;;;;;5061938;28;20454;-75
2023/03/17 14:43:15;;;;;;;0.00;0.00;;;13.70;41.20;;;;;;5072931;28;20024;-75
2023/03/17 14:45:47;;;;;;;0.00;0.00;;;13.70;41.10;;;;;;5074580;28;20421;-75
2023/03/17 14:48:15;;;;;;;0.00;0.00;;;13.70;41.40;;;;;;5073609;28;20104;-74
2023/03/17 14:50:53;;;;;;;0.00;0.00;;;13.60;41.40;;;;;;5061215;28;20141;-74
2023/03/17 14:53:19;;;;;;;0.00;0.00;;;13.50;41.20;;;;;;5059419;28;20208;-75
2023/03/17 14:55:46;;;;;;;0.00;0.00;;;13.50;41.60;;;;;;5072163;28;20025;-74
2023/03/17 14:58:29;;;;;;;0.00;0.00;;;13.50;41.20;;;;;;5063596;28;20350;-74
2023/03/17 15:01:01;;;;;;;0.00;0.00;;;13.50;41.20;;;;;;5064919;28;20060;-73
2023/03/17 15:03:30;;;;;;;0.00;0.00;;;13.40;41.50;;;;;;5063142;28;20327;-75
2023/03/17 15:06:22;;;;;;;0.00;0.00;;;13.30;41.80;;;;;;5056498;28;20208;-74
2023/03/17 15:08:49;;;;;;;0.00;0.00;;;13.30;41.60;;;;;;5072782;28;20021;-73
2023/03/17 15:11:16;;;;;;;0.00;0.00;;;13.30;41.60;;;;;;5072358;28;20035;-72
2023/03/17 15:13:42;;;;;;;0.00;0.00;;;13.30;41.90;;;;;;5064795;28;20348;-72
2023/03/17 15:16:29;;;;;;;0.00;0.00;;;13.30;41.70;;;;;;5057804;28;20017;-73
2023/03/17 15:19:39;;;;;;;0.00;0.00;;;13.30;41.90;;;;;;5059323;28;20082;-72
2023/03/17 15:22:21;;;;;;;0.00;0.00;;;13.20;42.50;;;;;;5028093;28;20151;-75
2023/03/17 15:25:00;;;;;;;0.00;0.00;;;13.20;42.90;;;;;;5064728;28;20024;-75
2023/03/17 15:27:26;;;;;;;0.00;0.00;;;13.10;43.30;;;;;;5072044;28;20024;-73
2023/03/17 15:29:52;;;;;;;0.00;0.00;;;13.00;43.20;;;;;;5060782;28;20188;-73
2023/03/17 15:32:23;;;;;;;0.00;0.00;;;13.00;43.40;;;;;;5060535;28;20307;-73
2023/03/17 15:34:51;;;;;;;0.00;0.00;;;12.90;43.40;;;;;;5057297;28;20100;-72
2023/03/17 15:37:19;;;;;;;;;;;12.90;43.50;;;;;;5060843;28;20077;-73
2023/03/17 15:39:46;;;;;;;0.00;0.00;;;12.90;43.80;;;;;;5068865;28;19905;-71
2023/03/17 15:42:11;;;;;;;0.00;0.00;;;12.80;43.90;;;;;;5059901;28;20024;-75
2023/03/17 15:44:37;;;;;;;0.00;0.00;;;12.80;43.90;;;;;;5061437;28;20296;-74
2023/03/17 15:47:03;;;;;;;0.00;0.00;;;12.70;44.00;;;;;;5071360;28;20326;-73
2023/03/17 15:49:29;;;;;;;0.00;0.00;;;12.70;44.00;;;;;;5074807;28;20024;-73
2023/03/17 15:51:55;;;;;;;0.00;0.00;;;12.60;43.90;;;;;;5066012;28;20275;-71
2023/03/17 15:54:21;;;;;;;0.00;0.00;;;12.60;44.10;;;;;;5060149;28;20036;-74
2023/03/17 15:56:46;;;;;;;0.00;0.00;;;12.60;44.10;;;;;;5075214;28;20052;-72
2023/03/17 15:59:12;;;;;;;0.00;0.00;;;12.50;44.00;;;;;;5071825;28;20025;-74
2023/03/17 16:01:38;;;;;;;0.00;0.00;;;12.50;43.90;;;;;;5057782;28;20037;-73
2023/03/17 16:04:05;;;;;;;0.00;0.00;;;12.50;44.00;;;;;;5075449;28;20024;-73
2023/03/17 16:06:32;;;;;;;0.00;0.00;;;12.40;43.90;;;;;;5061126;28;20278;-73
2023/03/17 16:08:58;;;;;;;0.00;0.00;;;12.40;43.80;;;;;;5073483;28;20076;-74
2023/03/17 16:11:28;;;;;;;0.00;0.00;;;12.40;44.00;;;;;;5060872;28;20246;-73
2023/03/17 16:13:55;;;;;;;0.00;0.00;;;12.30;44.20;;;;;;5075589;28;20051;-73
2023/03/17 16:16:37;;;;;;;0.00;0.00;;;12.30;43.80;;;;;;5066530;28;20021;-73
2023/03/17 16:19:13;;;;;;;0.00;0.00;;;12.20;44.00;;;;;;5062745;28;20029;-73
2023/03/17 16:21:40;;;;;;;0.00;0.00;;;12.20;44.10;;;;;;5065653;28;20048;-73
2023/03/17 16:24:11;;;;;;;0.00;0.00;;;12.10;44.20;;;;;;5066676;28;20024;-72
2023/03/17 16:26:37;;;;;;;0.00;0.00;;;12.10;44.20;;;;;;5070004;28;20020;-73
2023/03/17 16:29:10;;;;;;;0.00;0.00;;;12.00;44.20;;;;;;5062113;28;20211;-74
2023/03/17 16:31:36;;;;;;;0.00;0.00;;;12.00;44.40;;;;;;5074169;28;20375;-74
2023/03/17 16:34:02;;;;;;;0.00;0.00;;;12.00;44.40;;;;;;5074718;28;20032;-73
2023/03/17 16:36:27;;;;;;;0.00;0.00;;;11.90;44.50;;;;;;5070440;28;20032;-73
2023/03/17 16:38:53;;;;;;;0.00;0.00;;;11.90;44.70;;;;;;5073032;28;20017;-72
2023/03/17 16:41:23;;;;;;;0.00;0.00;;;11.80;44.60;;;;;;5069349;28;20036;-73
2023/03/17 16:43:52;;;;;;;0.00;0.00;;;11.70;45.00;;;;;;5073394;28;20220;-73
2023/03/17 16:46:19;;;;;;;0.00;0.00;;;11.70;45.00;;;;;;5066374;28;20020;-73
2023/03/17 16:48:47;;;;;;;0.00;0.00;;;11.70;45.10;;;;;;5071060;28;20135;-72
2023/03/17 16:51:13;;;;;;;0.00;0.00;;;11.70;45.20;;;;;;5072204;28;20033;-73
2023/03/17 16:53:38;;;;;;;0.00;0.00;;;11.60;45.20;;;;;;5074269;28;20023;-73
2023/03/17 16:56:11;;;;;;;0.00;0.00;;;11.60;45.30;;;;;;5070986;28;20024;-72
2023/03/17 16:58:38;;;;;;;0.00;0.00;;;11.60;45.40;;;;;;5060452;28;20036;-74
